createdAt,value
2018-09-06T00:00:59.589Z,12.23
2018-09-06T00:03:28.195Z,13.07
2018-09-06T00:05:56.366Z,12.57
2018-09-06T00:08:24.740Z,11.57
2018-09-06T00:10:53.123Z,12.27
2018-09-06T00:13:21.520Z,11.87
2018-09-06T00:15:49.893Z,12.13
2018-09-06T00:18:18.279Z,11.87
2018-09-06T00:20:47.542Z,11.57
2018-09-06T00:23:16.453Z,12.20
2018-09-06T00:25:44.849Z,11.37
2018-09-06T00:28:14.004Z,11.50
2018-09-06T00:30:42.387Z,11.30
2018-09-06T00:33:10.929Z,11.33
2018-09-06T00:35:39.472Z,11.67
2018-09-06T00:38:08.375Z,11.23
2018-09-06T00:40:38.553Z,11.77
2018-09-06T00:43:06.981Z,11.63
2018-09-06T00:45:36.248Z,11.70
2018-09-06T00:48:04.852Z,11.30
2018-09-06T00:50:33.057Z,11.80
2018-09-06T00:53:01.895Z,10.60
2018-09-06T00:55:30.322Z,10.57
2018-09-06T00:57:59.522Z,11.77
2018-09-06T01:00:28.135Z,11.60
2018-09-06T01:02:56.344Z,10.93
2018-09-06T01:05:24.713Z,10.90
2018-09-06T01:07:53.101Z,10.70
2018-09-06T01:10:21.716Z,11.03
2018-09-06T01:12:49.862Z,10.10
2018-09-06T01:15:18.232Z,10.70
2018-09-06T01:17:46.639Z,10.23
2018-09-06T01:20:15.011Z,10.50
2018-09-06T01:22:47.148Z,11.17
2018-09-06T01:25:13.745Z,11.37
2018-09-06T01:27:42.928Z,11.33
2018-09-06T01:30:11.941Z,11.43
2018-09-06T01:32:41.764Z,11.97
2018-09-06T01:35:09.136Z,11.73
2018-09-06T01:37:38.446Z,11.63
2018-09-06T01:40:10.032Z,11.17
2018-09-06T01:42:41.558Z,11.90
2018-09-06T01:45:17.710Z,11.47
2018-09-06T01:47:46.120Z,12.20
2018-09-06T01:50:14.653Z,12.30
2018-09-06T01:52:43.702Z,14.47
2018-09-06T01:55:11.866Z,15.30
2018-09-06T01:57:40.721Z,14.23
2018-09-06T02:00:09.701Z,14.00
2018-09-06T02:02:38.181Z,13.20
2018-09-06T02:05:07.143Z,14.00
2018-09-06T02:07:43.176Z,13.13
2018-09-06T02:10:12.198Z,13.27
2018-09-06T02:12:41.499Z,12.50
2018-09-06T02:15:09.286Z,12.23
2018-09-06T02:17:39.266Z,13.20
2018-09-06T02:20:07.614Z,12.70
2018-09-06T02:22:36.248Z,12.20
2018-09-06T02:25:04.605Z,12.63
2018-09-06T02:27:32.354Z,11.57
2018-09-06T02:30:01.354Z,11.40
2018-09-06T02:32:29.712Z,12.07
2018-09-06T02:34:57.454Z,12.57
2018-09-06T02:37:26.433Z,12.90
2018-09-06T02:39:54.877Z,15.53
2018-09-06T02:42:24.117Z,16.90
2018-09-06T02:44:52.791Z,15.97
2018-09-06T02:47:22.164Z,16.63
2018-09-06T02:49:49.014Z,17.03
2018-09-06T02:52:17.942Z,14.13
2018-09-06T02:54:46.279Z,14.50
2018-09-06T02:57:14.640Z,14.63
2018-09-06T02:59:42.977Z,12.80
2018-09-06T03:02:10.731Z,14.13
2018-09-06T03:04:39.643Z,14.50
2018-09-06T03:07:07.522Z,13.97
2018-09-06T03:09:36.439Z,13.77
2018-09-06T03:12:04.790Z,12.90
2018-09-06T03:14:32.549Z,13.40
2018-09-06T03:17:01.502Z,13.80
2018-09-06T03:19:29.844Z,14.63
2018-09-06T03:21:58.179Z,14.20
2018-09-06T03:24:25.926Z,13.13
2018-09-06T03:26:54.253Z,13.10
2018-09-06T03:29:23.188Z,12.93
2018-09-06T03:31:51.534Z,13.27
2018-09-06T03:34:19.889Z,13.17
2018-09-06T03:36:47.635Z,13.07
2018-09-06T03:39:16.555Z,13.23
2018-09-06T03:41:44.889Z,13.90
2018-09-06T03:44:12.637Z,12.93
2018-09-06T03:46:40.978Z,13.00
2018-09-06T03:49:09.308Z,12.60
2018-09-06T03:51:38.476Z,15.43
2018-09-06T03:54:05.988Z,13.50
2018-09-06T03:56:34.340Z,16.43
2018-09-06T03:59:02.680Z,20.90
2018-09-06T04:01:31.091Z,24.10
2018-09-06T04:03:59.418Z,30.97
2018-09-06T04:06:27.762Z,33.73
2018-09-06T04:08:56.700Z,31.27
2018-09-06T04:11:25.042Z,29.37
2018-09-06T04:13:52.789Z,27.70
2018-09-06T04:16:21.732Z,25.97
2018-09-06T04:18:50.783Z,19.67
2018-09-06T04:21:18.392Z,18.30
2018-09-06T04:23:46.733Z,18.83
2018-09-06T04:26:15.065Z,16.07
2018-09-06T04:28:43.405Z,16.07
2018-09-06T04:31:11.748Z,14.93
2018-09-06T04:33:39.497Z,15.43
2018-09-06T04:36:08.189Z,15.87
2018-09-06T04:38:36.772Z,14.57
2018-09-06T04:41:04.528Z,14.73
2018-09-06T04:43:32.871Z,13.83
2018-09-06T04:46:01.798Z,13.60
2018-09-06T04:48:29.545Z,13.63
2018-09-06T04:50:58.604Z,12.63
2018-09-06T04:53:26.931Z,13.17
2018-09-06T04:55:55.275Z,12.90
2018-09-06T04:58:23.646Z,13.03
2018-09-06T05:00:52.027Z,13.03
2018-09-06T05:03:19.779Z,12.43
2018-09-06T05:05:48.695Z,11.73
2018-09-06T05:08:17.056Z,12.13
2018-09-06T05:10:45.467Z,12.20
2018-09-06T05:13:13.798Z,11.90
2018-09-06T05:15:42.150Z,12.67
2018-09-06T05:18:10.476Z,12.43
2018-09-06T05:20:38.810Z,12.80
2018-09-06T05:23:07.165Z,12.60
2018-09-06T05:25:35.498Z,13.33
2018-09-06T05:28:03.848Z,12.67
2018-09-06T05:30:32.212Z,14.00
2018-09-06T05:33:00.549Z,15.93
2018-09-06T05:35:29.157Z,16.27
2018-09-06T05:37:57.602Z,15.77
2018-09-06T05:40:26.000Z,15.67
2018-09-06T05:42:54.322Z,15.27
2018-09-06T05:45:22.091Z,17.93
2018-09-06T05:47:50.442Z,15.20
2018-09-06T05:50:18.778Z,15.43
2018-09-06T05:52:47.708Z,15.00
2018-09-06T05:55:15.461Z,14.13
2018-09-06T05:57:43.792Z,13.90
2018-09-06T06:00:12.714Z,14.27
2018-09-06T06:02:40.708Z,14.10
2018-09-06T06:05:09.092Z,15.10
2018-09-06T06:07:37.385Z,14.57
2018-09-06T06:10:06.291Z,14.17
2018-09-06T06:12:34.082Z,14.80
2018-09-06T06:15:03.006Z,14.40
2018-09-06T06:17:31.335Z,13.97
2018-09-06T06:19:59.720Z,14.57
2018-09-06T06:22:28.033Z,14.80
2018-09-06T06:24:56.376Z,14.30
2018-09-06T06:27:24.132Z,13.67
2018-09-06T06:29:53.060Z,14.60
2018-09-06T06:32:20.861Z,19.07
2018-09-06T06:34:49.749Z,22.23
2018-09-06T06:37:18.070Z,16.70
2018-09-06T06:39:46.427Z,14.70
2018-09-06T06:42:14.757Z,12.37
2018-09-06T06:44:43.094Z,13.30
2018-09-06T06:47:11.438Z,12.90
2018-09-06T06:49:39.780Z,13.27
2018-09-06T06:52:07.530Z,13.50
2018-09-06T06:54:35.869Z,13.20
2018-09-06T06:57:04.834Z,12.37
2018-09-06T06:59:32.578Z,11.20
2018-09-06T07:02:01.508Z,10.87
2018-09-06T07:04:29.281Z,11.67
2018-09-06T07:06:57.646Z,10.97
2018-09-06T07:09:26.069Z,11.20
2018-09-06T07:11:54.530Z,11.30
2018-09-06T07:14:22.882Z,13.10
2018-09-06T07:16:51.719Z,10.70
2018-09-06T07:19:20.050Z,11.40
2018-09-06T07:21:48.382Z,11.30
2018-09-06T07:24:16.710Z,10.77
2018-09-06T07:26:44.488Z,11.17
2018-09-06T07:29:13.403Z,13.30
2018-09-06T07:31:41.741Z,12.43
2018-09-06T07:34:10.079Z,20.07
2018-09-06T07:36:38.415Z,14.27
2018-09-06T07:39:06.754Z,10.17
2018-09-06T07:41:35.074Z,9.93
2018-09-06T07:44:03.405Z,10.20
2018-09-06T07:46:31.736Z,10.97
2018-09-06T07:48:59.491Z,10.37
2018-09-06T07:51:27.849Z,11.30
2018-09-06T07:53:56.176Z,15.33
2018-09-06T07:56:24.828Z,12.37
2018-09-06T07:58:53.426Z,11.43
2018-09-06T08:01:21.767Z,11.47
2018-09-06T08:03:50.096Z,10.97
2018-09-06T08:06:18.425Z,11.27
2018-09-06T08:08:46.809Z,10.93
2018-09-06T08:11:14.561Z,10.97
2018-09-06T08:13:43.484Z,11.57
2018-09-06T08:16:11.853Z,12.30
2018-09-06T08:18:39.616Z,11.87
2018-09-06T08:21:08.528Z,11.93
2018-09-06T08:23:36.299Z,12.70
2018-09-06T08:26:04.659Z,11.67
2018-09-06T08:28:32.993Z,12.17
2018-09-06T08:31:02.097Z,11.73
2018-09-06T08:33:30.248Z,12.07
2018-09-06T08:35:58.592Z,11.70
2018-09-06T08:38:26.921Z,15.27
2018-09-06T08:40:54.682Z,38.13
2018-09-06T08:43:23.623Z,10.80
2018-09-06T08:45:51.954Z,10.70
2018-09-06T08:48:19.722Z,10.93
2018-09-06T08:50:48.630Z,10.87
2018-09-06T08:53:16.982Z,10.97
2018-09-06T08:55:45.316Z,10.80
2018-09-06T08:58:13.905Z,10.70
2018-09-06T09:00:41.995Z,12.63
2018-09-06T09:03:10.371Z,10.77
2018-09-06T09:05:38.696Z,10.80
2018-09-06T09:08:07.054Z,11.13
2018-09-06T09:10:35.376Z,11.77
2018-09-06T09:13:03.779Z,14.17
2018-09-06T09:15:32.066Z,13.30
2018-09-06T09:18:00.542Z,11.87
2018-09-06T09:20:28.299Z,11.63
2018-09-06T09:22:56.621Z,11.60
2018-09-06T09:25:25.016Z,11.60
2018-09-06T09:27:53.320Z,11.70
2018-09-06T09:30:23.313Z,12.77
2018-09-06T09:32:50.005Z,12.30
2018-09-06T09:35:18.921Z,11.53
2018-09-06T09:37:47.285Z,12.53
2018-09-06T09:40:15.050Z,10.77
2018-09-06T09:42:43.381Z,22.10
2018-09-06T09:45:12.301Z,13.07
2018-09-06T09:47:40.647Z,12.87
2018-09-06T09:50:08.975Z,12.03
2018-09-06T09:52:36.885Z,12.47
2018-09-06T09:55:05.669Z,11.60
2018-09-06T09:57:33.419Z,11.33
2018-09-06T10:00:01.984Z,11.83
2018-09-06T10:02:30.689Z,11.43
2018-09-06T10:04:59.030Z,11.10
2018-09-06T10:07:29.166Z,11.83
2018-09-06T10:09:57.561Z,11.57
2018-09-06T10:12:25.893Z,11.80
2018-09-06T10:14:53.662Z,11.77
2018-09-06T10:17:22.610Z,12.07
2018-09-06T10:19:50.966Z,11.10
2018-09-06T10:22:19.312Z,23.30
2018-09-06T10:24:47.648Z,13.23
2018-09-06T10:27:15.400Z,11.10
2018-09-06T10:29:43.731Z,11.00
2018-09-06T10:32:12.650Z,11.50
2018-09-06T10:34:40.980Z,11.43
2018-09-06T10:37:09.518Z,10.63
2018-09-06T10:39:39.173Z,10.20
2018-09-06T10:42:06.177Z,10.23
2018-09-06T10:44:35.106Z,10.63
2018-09-06T10:47:03.437Z,10.37
2018-09-06T10:49:31.767Z,10.70
2018-09-06T10:52:00.594Z,11.40
2018-09-06T10:54:28.113Z,12.67
2018-09-06T10:56:57.032Z,11.17
2018-09-06T10:59:25.379Z,11.07
2018-09-06T11:01:53.136Z,69.13
2018-09-06T11:04:22.066Z,26.43
2018-09-06T11:06:50.409Z,10.37
2018-09-06T11:09:18.725Z,9.73
2018-09-06T11:11:46.464Z,10.67
2018-09-06T11:14:15.386Z,10.00
2018-09-06T11:16:43.723Z,9.83
2018-09-06T11:19:12.061Z,10.90
2018-09-06T11:21:40.797Z,9.70
2018-09-06T11:24:09.612Z,10.63
2018-09-06T11:26:37.944Z,10.47
2018-09-06T11:29:06.270Z,10.23
2018-09-06T11:31:34.611Z,9.63
2018-09-06T11:34:02.954Z,10.27
2018-09-06T11:36:30.726Z,10.57
2018-09-06T11:38:59.056Z,10.43
2018-09-06T11:41:28.763Z,9.70
2018-09-06T11:43:57.925Z,10.60
2018-09-06T11:46:25.947Z,10.43
2018-09-06T11:48:54.587Z,9.80
2018-09-06T11:51:22.932Z,9.50
2018-09-06T11:53:51.261Z,9.10
2018-09-06T11:56:19.580Z,10.40
2018-09-06T11:58:47.924Z,10.23
2018-09-06T12:01:16.267Z,9.77
2018-09-06T12:03:44.047Z,11.17
2018-09-06T12:06:12.999Z,9.00
2018-09-06T12:08:41.331Z,9.37
2018-09-06T12:11:09.672Z,9.73
2018-09-06T12:13:38.015Z,9.47
2018-09-06T12:16:06.363Z,9.17
2018-09-06T12:18:34.108Z,9.63
2018-09-06T12:21:03.092Z,9.47
2018-09-06T12:23:31.449Z,12.97
2018-09-06T12:25:59.784Z,54.67
2018-09-06T12:28:28.115Z,10.37
2018-09-06T12:30:56.432Z,9.00
2018-09-06T12:33:24.790Z,9.13
2018-09-06T12:35:52.516Z,9.97
2018-09-06T12:38:21.432Z,9.43
2018-09-06T12:40:49.187Z,9.87
2018-09-06T12:43:18.113Z,10.37
2018-09-06T12:45:45.852Z,9.57
2018-09-06T12:48:14.760Z,9.27
2018-09-06T12:50:43.108Z,9.77
2018-09-06T12:53:11.439Z,14.23
2018-09-06T12:55:39.937Z,9.70
2018-09-06T12:58:07.688Z,9.73
2018-09-06T13:00:36.594Z,9.80
2018-09-06T13:03:04.337Z,9.27
2018-09-06T13:05:32.670Z,11.20
2018-09-06T13:08:01.613Z,10.20
2018-09-06T13:10:29.915Z,9.90
2018-09-06T13:12:57.663Z,9.40
2018-09-06T13:15:26.566Z,10.00
2018-09-06T13:17:54.893Z,9.47
2018-09-06T13:20:22.636Z,9.50
2018-09-06T13:22:52.338Z,9.90
2018-09-06T13:25:20.188Z,31.97
2018-09-06T13:27:49.095Z,17.97
2018-09-06T13:30:16.896Z,10.50
2018-09-06T13:32:46.263Z,10.20
2018-09-06T13:35:14.027Z,10.63
2018-09-06T13:37:42.498Z,10.20
2018-09-06T13:40:10.825Z,10.93
2018-09-06T13:42:39.168Z,10.40
2018-09-06T13:45:07.502Z,9.90
2018-09-06T13:47:36.946Z,9.63
2018-09-06T13:50:05.054Z,9.20
2018-09-06T13:52:33.534Z,9.17
2018-09-06T13:55:01.873Z,9.43
2018-09-06T13:57:30.386Z,10.13
2018-09-06T13:59:58.744Z,9.90
2018-09-06T14:02:27.090Z,10.23
2018-09-06T14:04:55.491Z,9.53
2018-09-06T14:07:24.856Z,10.13
2018-09-06T14:09:52.222Z,10.10
2018-09-06T14:12:19.966Z,9.53
2018-09-06T14:14:48.934Z,10.60
2018-09-06T14:17:17.869Z,19.67
2018-09-06T14:19:46.189Z,12.23
2018-09-06T14:22:14.567Z,11.53
2018-09-06T14:24:42.961Z,15.87
2018-09-06T14:27:11.420Z,12.40
2018-09-06T14:29:39.405Z,11.43
2018-09-06T14:32:08.372Z,11.03
2018-09-06T14:34:36.130Z,10.83
2018-09-06T14:37:05.057Z,10.77
2018-09-06T14:39:33.410Z,11.13
2018-09-06T14:42:01.175Z,10.70
2018-09-06T14:44:30.115Z,10.77
2018-09-06T14:47:06.404Z,10.60
2018-09-06T14:49:38.160Z,11.13
2018-09-06T14:52:08.970Z,11.10
2018-09-06T14:54:37.323Z,10.60
2018-09-06T14:57:05.899Z,11.43
2018-09-06T14:59:33.996Z,10.67
2018-09-06T15:02:01.944Z,11.03
2018-09-06T15:04:31.709Z,11.20
2018-09-06T15:07:00.651Z,10.60
2018-09-06T15:09:27.814Z,10.43
2018-09-06T15:11:56.757Z,10.40
2018-09-06T15:14:25.105Z,11.10
2018-09-06T15:16:53.433Z,10.33
2018-09-06T15:19:22.211Z,10.87
2018-09-06T15:21:50.562Z,10.47
2018-09-06T15:24:20.285Z,11.30
2018-09-06T15:26:48.641Z,10.77
2018-09-06T15:29:18.035Z,10.97
2018-09-06T15:31:45.514Z,10.40
2018-09-06T15:34:13.264Z,11.20
2018-09-06T15:36:42.193Z,10.97
2018-09-06T15:39:09.946Z,10.30
2018-09-06T15:41:39.339Z,10.90
2018-09-06T15:44:07.417Z,10.90
2018-09-06T15:46:36.063Z,10.57
2018-09-06T15:49:04.553Z,10.60
2018-09-06T15:51:32.897Z,16.77
2018-09-06T15:54:00.686Z,10.80
2018-09-06T15:56:29.103Z,11.13
2018-09-06T15:58:57.452Z,11.20
2018-09-06T16:01:26.602Z,10.77
2018-09-06T16:03:54.988Z,11.00
2018-09-06T16:06:22.650Z,12.20
2018-09-06T16:08:51.394Z,13.60
2018-09-06T16:11:21.761Z,33.50
2018-09-06T16:13:57.409Z,14.60
2018-09-06T16:16:27.445Z,11.00
2018-09-06T16:18:55.861Z,11.10
2018-09-06T16:21:24.205Z,11.17
2018-09-06T16:26:21.647Z,11.97
2018-09-06T16:28:50.073Z,11.00
2018-09-06T16:31:18.483Z,11.90
2018-09-06T16:33:47.018Z,11.50
2018-09-06T16:36:15.404Z,11.00
2018-09-06T16:38:44.001Z,10.70
2018-09-06T16:41:12.166Z,10.47
2018-09-06T16:43:40.540Z,11.27
2018-09-06T16:46:09.361Z,10.93
2018-09-06T16:48:37.504Z,12.03
2018-09-06T16:51:05.844Z,11.43
2018-09-06T16:53:34.223Z,11.73
2018-09-06T16:56:02.120Z,12.30
2018-09-06T16:58:31.035Z,11.97
2018-09-06T17:00:59.468Z,11.70
2018-09-06T17:03:27.755Z,12.33
2018-09-06T17:05:56.209Z,12.40
2018-09-06T17:08:24.537Z,13.13
2018-09-06T17:10:52.956Z,16.47
2018-09-06T17:13:21.360Z,15.03
2018-09-06T17:15:49.830Z,14.50
2018-09-06T17:18:18.168Z,14.03
2018-09-06T17:20:46.559Z,14.07
2018-09-06T17:23:14.956Z,17.13
2018-09-06T17:25:43.313Z,12.90
2018-09-06T17:28:11.658Z,15.97
2018-09-06T17:30:40.723Z,15.20
2018-09-06T17:33:09.159Z,15.67
2018-09-06T17:35:37.536Z,17.03
2018-09-06T17:38:08.017Z,16.10
2018-09-06T17:40:35.445Z,16.20
2018-09-06T17:43:03.912Z,31.80
2018-09-06T17:45:32.289Z,23.50
2018-09-06T17:48:00.633Z,26.33
2018-09-06T17:50:28.985Z,17.10
2018-09-06T17:52:57.459Z,91.50
2018-09-06T17:55:26.027Z,66.33
2018-09-06T17:57:54.168Z,41.33
2018-09-06T18:00:22.512Z,34.67
2018-09-06T18:02:50.336Z,27.27
2018-09-06T18:05:19.251Z,21.87
2018-09-06T18:07:47.631Z,21.60
2018-09-06T18:10:15.979Z,20.43
2018-09-06T18:12:45.284Z,19.70
2018-09-06T18:15:13.963Z,20.70
2018-09-06T18:17:42.434Z,19.47
2018-09-06T18:20:10.095Z,20.70
2018-09-06T18:22:39.027Z,21.20
2018-09-06T18:25:07.372Z,20.87
2018-09-06T18:27:35.121Z,21.53
2018-09-06T18:30:04.047Z,23.47
2018-09-06T18:32:32.477Z,23.87
2018-09-06T18:35:00.976Z,26.60
2018-09-06T18:37:29.333Z,24.60
2018-09-06T18:39:57.705Z,23.03
2018-09-06T18:42:25.542Z,24.27
2018-09-06T18:44:54.444Z,25.20
2018-09-06T18:47:22.724Z,29.63
2018-09-06T18:49:51.046Z,53.83
2018-09-06T18:52:18.884Z,58.63
2018-09-06T18:54:47.927Z,59.17
2018-09-06T18:57:16.284Z,73.00
2018-09-06T18:59:44.647Z,83.03
2018-09-06T19:02:13.081Z,32.60
2018-09-06T19:04:41.627Z,31.07
2018-09-06T19:07:10.009Z,30.70
2018-09-06T19:09:38.396Z,31.57
2018-09-06T19:12:06.782Z,28.10
2018-09-06T19:14:35.129Z,27.67
2018-09-06T19:17:03.504Z,26.53
2018-09-06T19:19:31.878Z,25.07
2018-09-06T19:22:00.257Z,24.93
2018-09-06T19:24:28.776Z,24.83
2018-09-06T19:26:57.359Z,24.23
2018-09-06T19:29:25.496Z,24.30
2018-09-06T19:31:53.997Z,25.30
2018-09-06T19:34:35.654Z,24.60
2018-09-06T19:36:53.320Z,24.87
2018-09-06T19:39:21.885Z,25.37
2018-09-06T19:41:50.848Z,26.07
2018-09-06T19:44:19.233Z,27.23
2018-09-06T19:46:47.592Z,25.50
2018-09-06T19:49:25.232Z,25.30
2018-09-06T19:51:45.817Z,27.07
2018-09-06T19:54:14.867Z,28.57
2018-09-06T19:56:43.916Z,29.20
2018-09-06T19:59:12.322Z,28.53
2018-09-06T20:01:40.075Z,26.63
2018-09-06T20:04:09.363Z,26.93
2018-09-06T20:06:39.515Z,26.50
2018-09-06T20:09:08.517Z,27.07
2018-09-06T20:11:36.862Z,25.97
2018-09-06T20:14:06.543Z,26.80
2018-09-06T20:16:34.332Z,25.97
2018-09-06T20:19:03.266Z,24.97
2018-09-06T20:21:32.067Z,25.37
2018-09-06T20:23:59.846Z,24.23
2018-09-06T20:26:28.783Z,24.07
2018-09-06T20:28:56.522Z,24.90
2018-09-06T20:31:25.538Z,23.87
2018-09-06T20:33:54.453Z,23.63
2018-09-06T20:36:22.822Z,24.77
2018-09-06T20:38:51.200Z,23.13
2018-09-06T20:41:19.586Z,23.93
2018-09-06T20:43:48.160Z,23.77
2018-09-06T20:46:16.601Z,23.73
2018-09-06T20:48:44.951Z,22.20
2018-09-06T20:51:14.349Z,21.87
2018-09-06T20:53:42.769Z,22.63
2018-09-06T20:56:11.218Z,23.40
2018-09-06T20:58:39.608Z,23.67
2018-09-06T21:01:10.324Z,22.17
2018-09-06T21:03:37.395Z,22.70
2018-09-06T21:06:05.701Z,23.33
2018-09-06T21:08:34.564Z,24.27
2018-09-06T21:11:02.879Z,25.17
2018-09-06T21:13:31.259Z,24.70
2018-09-06T21:15:59.607Z,24.77
2018-09-06T21:18:29.607Z,24.40
2018-09-06T22:20:46.218Z,25.13
2018-09-06T22:23:14.662Z,25.93
2018-09-06T22:25:43.538Z,26.67
2018-09-06T22:28:11.873Z,27.63
2018-09-06T22:30:40.215Z,23.53
2018-09-06T22:33:08.572Z,24.10
2018-09-06T22:35:36.915Z,22.47
2018-09-06T22:38:05.247Z,25.53
2018-09-06T22:40:33.615Z,23.73
2018-09-06T22:43:01.983Z,24.00
2018-09-06T22:45:29.721Z,22.60
2018-09-06T22:47:58.632Z,22.83
2018-09-06T22:50:26.963Z,22.03
2018-09-06T22:52:55.321Z,20.33
2018-09-06T22:55:23.088Z,20.67
2018-09-06T22:57:52.019Z,20.00
2018-09-06T23:00:19.792Z,19.67
2018-09-06T23:02:48.732Z,19.30
2018-09-06T23:05:17.069Z,20.50
2018-09-06T23:07:45.406Z,20.43
2018-09-06T23:10:13.842Z,20.73
2018-09-06T23:12:42.151Z,20.33
2018-09-06T23:15:09.891Z,21.03
2018-09-06T23:17:38.799Z,20.10
2018-09-06T23:20:06.549Z,19.47
2018-09-06T23:22:34.908Z,19.87
2018-09-06T23:25:03.819Z,19.90
2018-09-06T23:27:31.583Z,18.80
2018-09-06T23:30:00.504Z,20.27
2018-09-06T23:32:28.853Z,20.40
2018-09-06T23:34:56.602Z,20.07
2018-09-06T23:37:24.946Z,19.40
2018-09-06T23:39:53.281Z,18.87
2018-09-06T23:42:21.660Z,19.50
2018-09-06T23:44:50.565Z,21.27
2018-09-06T23:47:18.896Z,19.37
2018-09-06T23:49:46.653Z,20.20
2018-09-06T23:52:15.583Z,20.00
2018-09-06T23:54:43.928Z,18.37
2018-09-06T23:57:12.289Z,18.27
2018-09-06T23:59:40.621Z,18.00
